sensor_id;sensor_type;location;lat;lon;timestamp;P1;durP1;ratioP1;P2;durP2;ratioP2
28958;SDS011;16066;0.000;0.000;2022-11-27T00:02:18;13.80;;;10.03;;
28958;SDS011;16066;0.000;0.000;2022-11-27T00:04:44;16.20;;;10.90;;
28958;SDS011;16066;0.000;0.000;2022-11-27T00:07:09;16.20;;;11.20;;
28958;SDS011;16066;0.000;0.000;2022-11-27T00:09:35;16.20;;;11.60;;
28958;SDS011;16066;0.000;0.000;2022-11-27T00:12:00;14.97;;;10.53;;
28958;SDS011;16066;0.000;0.000;2022-11-27T00:14:26;15.27;;;11.20;;
28958;SDS011;16066;0.000;0.000;2022-11-27T00:16:52;15.77;;;10.50;;
28958;SDS011;16066;0.000;0.000;2022-11-27T00:19:17;23.53;;;11.80;;
28958;SDS011;16066;0.000;0.000;2022-11-27T00:21:43;15.30;;;10.70;;
28958;SDS011;16066;0.000;0.000;2022-11-27T00:24:09;16.77;;;10.87;;
28958;SDS011;16066;0.000;0.000;2022-11-27T00:26:35;15.60;;;10.73;;
28958;SDS011;16066;0.000;0.000;2022-11-27T00:29:00;13.23;;;10.07;;
28958;SDS011;16066;0.000;0.000;2022-11-27T00:31:27;13.43;;;9.63;;
28958;SDS011;16066;0.000;0.000;2022-11-27T00:33:55;14.10;;;10.03;;
28958;SDS011;16066;0.000;0.000;2022-11-27T00:36:22;14.20;;;10.13;;
28958;SDS011;16066;0.000;0.000;2022-11-27T00:38:48;16.43;;;11.13;;
28958;SDS011;16066;0.000;0.000;2022-11-27T00:41:14;14.43;;;9.63;;
28958;SDS011;16066;0.000;0.000;2022-11-27T00:43:42;17.77;;;10.57;;
28958;SDS011;16066;0.000;0.000;2022-11-27T00:46:07;15.80;;;10.73;;
28958;SDS011;16066;0.000;0.000;2022-11-27T00:48:33;15.33;;;11.33;;
28958;SDS011;16066;0.000;0.000;2022-11-27T00:51:04;17.00;;;11.57;;
28958;SDS011;16066;0.000;0.000;2022-11-27T00:53:31;17.07;;;11.10;;
28958;SDS011;16066;0.000;0.000;2022-11-27T00:55:57;14.77;;;10.77;;
28958;SDS011;16066;0.000;0.000;2022-11-27T00:58:24;15.63;;;10.90;;
28958;SDS011;16066;0.000;0.000;2022-11-27T01:00:54;15.07;;;10.57;;
28958;SDS011;16066;0.000;0.000;2022-11-27T01:03:27;15.83;;;11.20;;
28958;SDS011;16066;0.000;0.000;2022-11-27T01:05:53;15.43;;;10.70;;
28958;SDS011;16066;0.000;0.000;2022-11-27T01:08:20;17.37;;;11.40;;
28958;SDS011;16066;0.000;0.000;2022-11-27T01:10:49;15.63;;;11.10;;
28958;SDS011;16066;0.000;0.000;2022-11-27T01:13:21;16.80;;;11.03;;
28958;SDS011;16066;0.000;0.000;2022-11-27T01:15:57;16.40;;;11.00;;
28958;SDS011;16066;0.000;0.000;2022-11-27T01:18:27;15.10;;;10.80;;
28958;SDS011;16066;0.000;0.000;2022-11-27T01:20:53;16.10;;;11.57;;
28958;SDS011;16066;0.000;0.000;2022-11-27T01:23:19;18.83;;;11.20;;
28958;SDS011;16066;0.000;0.000;2022-11-27T01:25:45;17.83;;;11.43;;
28958;SDS011;16066;0.000;0.000;2022-11-27T01:28:11;17.17;;;11.70;;
28958;SDS011;16066;0.000;0.000;2022-11-27T01:30:37;14.50;;;10.50;;
28958;SDS011;16066;0.000;0.000;2022-11-27T01:33:02;15.70;;;10.87;;
28958;SDS011;16066;0.000;0.000;2022-11-27T01:35:28;17.57;;;12.30;;
28958;SDS011;16066;0.000;0.000;2022-11-27T01:37:53;14.73;;;10.53;;
28958;SDS011;16066;0.000;0.000;2022-11-27T01:40:19;15.20;;;11.70;;
28958;SDS011;16066;0.000;0.000;2022-11-27T01:42:45;17.30;;;11.93;;
28958;SDS011;16066;0.000;0.000;2022-11-27T01:45:10;17.17;;;12.77;;
28958;SDS011;16066;0.000;0.000;2022-11-27T01:47:45;19.57;;;12.57;;
28958;SDS011;16066;0.000;0.000;2022-11-27T01:50:16;15.87;;;11.20;;
28958;SDS011;16066;0.000;0.000;2022-11-27T01:52:55;13.97;;;10.57;;
28958;SDS011;16066;0.000;0.000;2022-11-27T01:58:06;15.33;;;10.27;;
28958;SDS011;16066;0.000;0.000;2022-11-27T02:00:34;15.90;;;10.73;;
28958;SDS011;16066;0.000;0.000;2022-11-27T02:03:00;14.57;;;10.33;;
28958;SDS011;16066;0.000;0.000;2022-11-27T02:05:26;15.80;;;11.10;;
28958;SDS011;16066;0.000;0.000;2022-11-27T02:07:52;15.40;;;11.07;;
28958;SDS011;16066;0.000;0.000;2022-11-27T02:10:21;16.50;;;11.00;;
28958;SDS011;16066;0.000;0.000;2022-11-27T02:12:55;16.73;;;11.80;;
28958;SDS011;16066;0.000;0.000;2022-11-27T02:15:29;15.43;;;11.63;;
28958;SDS011;16066;0.000;0.000;2022-11-27T02:17:58;17.03;;;11.10;;
28958;SDS011;16066;0.000;0.000;2022-11-27T02:23:35;17.73;;;11.40;;
28958;SDS011;16066;0.000;0.000;2022-11-27T02:26:29;15.30;;;10.53;;
28958;SDS011;16066;0.000;0.000;2022-11-27T02:29:13;14.33;;;10.53;;
28958;SDS011;16066;0.000;0.000;2022-11-27T02:42:42;14.40;;;11.27;;
28958;SDS011;16066;0.000;0.000;2022-11-27T02:45:24;14.83;;;10.77;;
28958;SDS011;16066;0.000;0.000;2022-11-27T02:47:59;15.17;;;10.90;;
28958;SDS011;16066;0.000;0.000;2022-11-27T02:50:25;16.00;;;12.00;;
28958;SDS011;16066;0.000;0.000;2022-11-27T02:52:53;14.30;;;11.10;;
28958;SDS011;16066;0.000;0.000;2022-11-27T02:55:24;17.73;;;11.97;;
28958;SDS011;16066;0.000;0.000;2022-11-27T02:57:54;18.43;;;11.27;;
28958;SDS011;16066;0.000;0.000;2022-11-27T03:00:22;17.37;;;11.80;;
28958;SDS011;16066;0.000;0.000;2022-11-27T03:02:52;15.20;;;10.63;;
28958;SDS011;16066;0.000;0.000;2022-11-27T03:05:21;15.83;;;10.80;;
28958;SDS011;16066;0.000;0.000;2022-11-27T03:07:52;16.07;;;10.90;;
28958;SDS011;16066;0.000;0.000;2022-11-27T03:10:28;18.20;;;12.53;;
28958;SDS011;16066;0.000;0.000;2022-11-27T03:12:57;16.80;;;11.43;;
28958;SDS011;16066;0.000;0.000;2022-11-27T03:15:24;16.43;;;11.00;;
28958;SDS011;16066;0.000;0.000;2022-11-27T03:18:06;15.23;;;10.83;;
28958;SDS011;16066;0.000;0.000;2022-11-27T03:20:50;15.00;;;11.20;;
28958;SDS011;16066;0.000;0.000;2022-11-27T03:23:26;17.57;;;11.90;;
28958;SDS011;16066;0.000;0.000;2022-11-27T03:25:52;17.43;;;11.87;;
28958;SDS011;16066;0.000;0.000;2022-11-27T03:28:18;16.50;;;11.33;;
28958;SDS011;16066;0.000;0.000;2022-11-27T03:30:44;16.93;;;12.13;;
28958;SDS011;16066;0.000;0.000;2022-11-27T03:33:09;16.13;;;11.90;;
28958;SDS011;16066;0.000;0.000;2022-11-27T03:35:35;16.00;;;11.40;;
28958;SDS011;16066;0.000;0.000;2022-11-27T03:38:01;16.93;;;12.00;;
28958;SDS011;16066;0.000;0.000;2022-11-27T03:40:28;19.50;;;12.23;;
28958;SDS011;16066;0.000;0.000;2022-11-27T03:43:22;17.37;;;11.73;;
28958;SDS011;16066;0.000;0.000;2022-11-27T03:45:59;15.90;;;11.50;;
28958;SDS011;16066;0.000;0.000;2022-11-27T03:48:42;16.77;;;11.60;;
28958;SDS011;16066;0.000;0.000;2022-11-27T03:57:16;16.17;;;11.60;;
28958;SDS011;16066;0.000;0.000;2022-11-27T03:59:51;15.93;;;11.47;;
28958;SDS011;16066;0.000;0.000;2022-11-27T04:02:30;14.90;;;11.30;;
28958;SDS011;16066;0.000;0.000;2022-11-27T04:05:09;14.03;;;10.93;;
28958;SDS011;16066;0.000;0.000;2022-11-27T04:07:36;17.53;;;12.13;;
28958;SDS011;16066;0.000;0.000;2022-11-27T04:10:02;17.13;;;11.13;;
28958;SDS011;16066;0.000;0.000;2022-11-27T04:12:28;16.17;;;10.90;;
28958;SDS011;16066;0.000;0.000;2022-11-27T04:14:54;16.30;;;11.10;;
28958;SDS011;16066;0.000;0.000;2022-11-27T04:17:19;19.60;;;12.57;;
28958;SDS011;16066;0.000;0.000;2022-11-27T04:19:45;21.63;;;13.93;;
28958;SDS011;16066;0.000;0.000;2022-11-27T04:22:10;16.63;;;12.10;;
28958;SDS011;16066;0.000;0.000;2022-11-27T04:24:36;17.43;;;12.17;;
28958;SDS011;16066;0.000;0.000;2022-11-27T04:27:01;16.73;;;12.00;;
28958;SDS011;16066;0.000;0.000;2022-11-27T04:29:27;17.67;;;12.20;;
28958;SDS011;16066;0.000;0.000;2022-11-27T04:31:52;18.57;;;12.67;;
28958;SDS011;16066;0.000;0.000;2022-11-27T04:34:18;17.20;;;12.40;;
28958;SDS011;16066;0.000;0.000;2022-11-27T04:36:43;19.20;;;12.13;;
28958;SDS011;16066;0.000;0.000;2022-11-27T04:39:10;19.27;;;12.93;;
28958;SDS011;16066;0.000;0.000;2022-11-27T04:41:37;15.60;;;11.90;;
28958;SDS011;16066;0.000;0.000;2022-11-27T04:44:02;16.00;;;12.10;;
28958;SDS011;16066;0.000;0.000;2022-11-27T04:46:28;19.80;;;12.57;;
28958;SDS011;16066;0.000;0.000;2022-11-27T04:48:54;17.10;;;11.83;;
28958;SDS011;16066;0.000;0.000;2022-11-27T04:51:19;17.37;;;12.47;;
28958;SDS011;16066;0.000;0.000;2022-11-27T04:53:45;18.23;;;12.30;;
28958;SDS011;16066;0.000;0.000;2022-11-27T04:56:10;17.30;;;12.00;;
28958;SDS011;16066;0.000;0.000;2022-11-27T04:58:36;20.57;;;13.17;;
28958;SDS011;16066;0.000;0.000;2022-11-27T05:01:01;21.43;;;12.70;;
28958;SDS011;16066;0.000;0.000;2022-11-27T05:03:27;16.97;;;12.20;;
28958;SDS011;16066;0.000;0.000;2022-11-27T05:05:53;20.60;;;12.17;;
28958;SDS011;16066;0.000;0.000;2022-11-27T05:08:20;17.77;;;12.00;;
28958;SDS011;16066;0.000;0.000;2022-11-27T05:10:45;17.97;;;11.97;;
28958;SDS011;16066;0.000;0.000;2022-11-27T05:13:11;19.37;;;12.43;;
28958;SDS011;16066;0.000;0.000;2022-11-27T05:15:37;18.47;;;12.73;;
28958;SDS011;16066;0.000;0.000;2022-11-27T05:18:02;18.67;;;12.33;;
28958;SDS011;16066;0.000;0.000;2022-11-27T05:20:28;17.17;;;11.90;;
28958;SDS011;16066;0.000;0.000;2022-11-27T05:22:53;19.20;;;13.57;;
28958;SDS011;16066;0.000;0.000;2022-11-27T05:25:19;16.57;;;11.07;;
28958;SDS011;16066;0.000;0.000;2022-11-27T05:27:44;17.33;;;11.93;;
28958;SDS011;16066;0.000;0.000;2022-11-27T05:30:10;17.20;;;11.60;;
28958;SDS011;16066;0.000;0.000;2022-11-27T05:32:35;16.20;;;11.23;;
28958;SDS011;16066;0.000;0.000;2022-11-27T05:35:01;19.60;;;12.50;;
28958;SDS011;16066;0.000;0.000;2022-11-27T05:37:27;17.40;;;12.13;;
28958;SDS011;16066;0.000;0.000;2022-11-27T05:39:52;17.00;;;12.37;;
28958;SDS011;16066;0.000;0.000;2022-11-27T05:42:18;19.20;;;12.30;;
28958;SDS011;16066;0.000;0.000;2022-11-27T05:44:43;18.60;;;11.93;;
28958;SDS011;16066;0.000;0.000;2022-11-27T05:47:09;15.07;;;11.80;;
28958;SDS011;16066;0.000;0.000;2022-11-27T05:49:34;17.33;;;12.60;;
28958;SDS011;16066;0.000;0.000;2022-11-27T05:52:00;18.03;;;11.80;;
28958;SDS011;16066;0.000;0.000;2022-11-27T05:54:26;17.67;;;11.73;;
28958;SDS011;16066;0.000;0.000;2022-11-27T05:56:51;16.50;;;11.50;;
28958;SDS011;16066;0.000;0.000;2022-11-27T05:59:17;18.43;;;12.97;;
28958;SDS011;16066;0.000;0.000;2022-11-27T06:01:42;17.70;;;11.97;;
28958;SDS011;16066;0.000;0.000;2022-11-27T06:04:08;16.90;;;12.10;;
28958;SDS011;16066;0.000;0.000;2022-11-27T06:06:33;18.30;;;11.30;;
28958;SDS011;16066;0.000;0.000;2022-11-27T06:08:59;19.80;;;13.03;;
28958;SDS011;16066;0.000;0.000;2022-11-27T06:11:24;16.23;;;11.50;;
28958;SDS011;16066;0.000;0.000;2022-11-27T06:13:50;21.70;;;12.63;;
28958;SDS011;16066;0.000;0.000;2022-11-27T06:16:19;16.30;;;11.43;;
28958;SDS011;16066;0.000;0.000;2022-11-27T06:18:50;16.47;;;11.70;;
28958;SDS011;16066;0.000;0.000;2022-11-27T06:21:16;15.60;;;11.23;;
28958;SDS011;16066;0.000;0.000;2022-11-27T06:23:43;17.47;;;11.57;;
28958;SDS011;16066;0.000;0.000;2022-11-27T06:28:39;15.80;;;10.97;;
28958;SDS011;16066;0.000;0.000;2022-11-27T06:31:06;14.97;;;10.57;;
28958;SDS011;16066;0.000;0.000;2022-11-27T06:33:32;17.23;;;12.30;;
28958;SDS011;16066;0.000;0.000;2022-11-27T06:35:59;17.90;;;11.33;;
28958;SDS011;16066;0.000;0.000;2022-11-27T06:38:24;16.73;;;11.40;;
28958;SDS011;16066;0.000;0.000;2022-11-27T06:40:50;16.30;;;11.33;;
28958;SDS011;16066;0.000;0.000;2022-11-27T06:43:15;18.57;;;11.67;;
28958;SDS011;16066;0.000;0.000;2022-11-27T06:45:41;18.30;;;12.53;;
28958;SDS011;16066;0.000;0.000;2022-11-27T06:48:06;24.80;;;17.20;;
28958;SDS011;16066;0.000;0.000;2022-11-27T06:50:32;21.33;;;13.23;;
28958;SDS011;16066;0.000;0.000;2022-11-27T06:52:57;16.97;;;12.17;;
28958;SDS011;16066;0.000;0.000;2022-11-27T06:55:23;19.30;;;11.73;;
28958;SDS011;16066;0.000;0.000;2022-11-27T06:57:49;14.27;;;9.97;;
28958;SDS011;16066;0.000;0.000;2022-11-27T07:00:15;15.53;;;10.03;;
28958;SDS011;16066;0.000;0.000;2022-11-27T07:02:41;18.93;;;11.97;;
28958;SDS011;16066;0.000;0.000;2022-11-27T07:05:07;15.20;;;10.60;;
28958;SDS011;16066;0.000;0.000;2022-11-27T07:07:33;16.30;;;10.30;;
28958;SDS011;16066;0.000;0.000;2022-11-27T07:09:58;21.60;;;10.10;;
28958;SDS011;16066;0.000;0.000;2022-11-27T07:12:24;14.80;;;10.57;;
28958;SDS011;16066;0.000;0.000;2022-11-27T07:14:49;17.67;;;11.70;;
28958;SDS011;16066;0.000;0.000;2022-11-27T07:17:15;17.13;;;10.43;;
28958;SDS011;16066;0.000;0.000;2022-11-27T07:19:40;15.30;;;10.33;;
28958;SDS011;16066;0.000;0.000;2022-11-27T07:22:06;15.40;;;10.93;;
28958;SDS011;16066;0.000;0.000;2022-11-27T07:24:31;14.30;;;9.77;;
28958;SDS011;16066;0.000;0.000;2022-11-27T07:26:57;15.17;;;9.80;;
28958;SDS011;16066;0.000;0.000;2022-11-27T07:29:22;13.83;;;9.37;;
28958;SDS011;16066;0.000;0.000;2022-11-27T07:31:48;15.90;;;10.03;;
28958;SDS011;16066;0.000;0.000;2022-11-27T07:34:15;14.47;;;10.97;;
28958;SDS011;16066;0.000;0.000;2022-11-27T07:36:40;13.33;;;10.27;;
28958;SDS011;16066;0.000;0.000;2022-11-27T07:39:06;15.10;;;10.20;;
28958;SDS011;16066;0.000;0.000;2022-11-27T07:41:31;16.53;;;10.30;;
28958;SDS011;16066;0.000;0.000;2022-11-27T07:43:57;13.17;;;9.57;;
28958;SDS011;16066;0.000;0.000;2022-11-27T07:46:22;12.77;;;9.00;;
28958;SDS011;16066;0.000;0.000;2022-11-27T07:48:49;14.17;;;9.67;;
28958;SDS011;16066;0.000;0.000;2022-11-27T07:51:16;15.07;;;10.60;;
28958;SDS011;16066;0.000;0.000;2022-11-27T07:53:43;14.10;;;10.37;;
28958;SDS011;16066;0.000;0.000;2022-11-27T07:56:10;13.03;;;9.70;;
28958;SDS011;16066;0.000;0.000;2022-11-27T07:58:37;14.70;;;10.17;;
28958;SDS011;16066;0.000;0.000;2022-11-27T08:01:07;15.53;;;10.30;;
28958;SDS011;16066;0.000;0.000;2022-11-27T08:03:33;14.67;;;9.03;;
28958;SDS011;16066;0.000;0.000;2022-11-27T08:05:59;13.80;;;9.90;;
28958;SDS011;16066;0.000;0.000;2022-11-27T08:08:24;12.97;;;9.77;;
28958;SDS011;16066;0.000;0.000;2022-11-27T08:10:50;14.70;;;10.23;;
28958;SDS011;16066;0.000;0.000;2022-11-27T08:13:15;15.23;;;10.90;;
28958;SDS011;16066;0.000;0.000;2022-11-27T08:15:41;11.30;;;9.03;;
28958;SDS011;16066;0.000;0.000;2022-11-27T08:18:06;12.87;;;8.73;;
28958;SDS011;16066;0.000;0.000;2022-11-27T08:20:32;14.20;;;9.33;;
28958;SDS011;16066;0.000;0.000;2022-11-27T08:22:58;12.50;;;8.93;;
28958;SDS011;16066;0.000;0.000;2022-11-27T08:25:23;14.13;;;9.40;;
28958;SDS011;16066;0.000;0.000;2022-11-27T08:27:49;15.30;;;9.77;;
28958;SDS011;16066;0.000;0.000;2022-11-27T08:30:14;12.00;;;8.77;;
28958;SDS011;16066;0.000;0.000;2022-11-27T08:32:41;12.57;;;8.80;;
28958;SDS011;16066;0.000;0.000;2022-11-27T08:35:08;14.70;;;9.83;;
28958;SDS011;16066;0.000;0.000;2022-11-27T08:37:34;12.07;;;9.47;;
28958;SDS011;16066;0.000;0.000;2022-11-27T08:40:00;16.93;;;9.37;;
28958;SDS011;16066;0.000;0.000;2022-11-27T08:42:25;12.70;;;8.60;;
28958;SDS011;16066;0.000;0.000;2022-11-27T08:44:51;12.13;;;8.70;;
28958;SDS011;16066;0.000;0.000;2022-11-27T08:47:16;10.53;;;7.97;;
28958;SDS011;16066;0.000;0.000;2022-11-27T08:49:42;11.77;;;8.40;;
28958;SDS011;16066;0.000;0.000;2022-11-27T08:52:09;11.60;;;8.57;;
28958;SDS011;16066;0.000;0.000;2022-11-27T08:54:35;10.77;;;8.30;;
28958;SDS011;16066;0.000;0.000;2022-11-27T08:57:01;13.30;;;9.67;;
28958;SDS011;16066;0.000;0.000;2022-11-27T08:59:26;12.17;;;8.73;;
28958;SDS011;16066;0.000;0.000;2022-11-27T09:01:52;13.50;;;8.93;;
28958;SDS011;16066;0.000;0.000;2022-11-27T09:04:17;12.07;;;7.40;;
28958;SDS011;16066;0.000;0.000;2022-11-27T09:06:43;11.03;;;7.90;;
28958;SDS011;16066;0.000;0.000;2022-11-27T09:09:09;15.77;;;9.10;;
28958;SDS011;16066;0.000;0.000;2022-11-27T09:11:35;13.27;;;8.80;;
28958;SDS011;16066;0.000;0.000;2022-11-27T09:14:02;11.50;;;7.53;;
28958;SDS011;16066;0.000;0.000;2022-11-27T09:16:28;10.50;;;7.63;;
28958;SDS011;16066;0.000;0.000;2022-11-27T09:18:54;10.80;;;7.83;;
28958;SDS011;16066;0.000;0.000;2022-11-27T09:21:22;9.97;;;7.57;;
28958;SDS011;16066;0.000;0.000;2022-11-27T09:23:51;10.20;;;7.40;;
28958;SDS011;16066;0.000;0.000;2022-11-27T09:26:18;14.70;;;8.43;;
28958;SDS011;16066;0.000;0.000;2022-11-27T09:28:43;12.30;;;8.63;;
28958;SDS011;16066;0.000;0.000;2022-11-27T09:31:13;12.70;;;8.47;;
28958;SDS011;16066;0.000;0.000;2022-11-27T09:33:40;13.13;;;8.47;;
28958;SDS011;16066;0.000;0.000;2022-11-27T09:36:07;12.67;;;9.27;;
28958;SDS011;16066;0.000;0.000;2022-11-27T09:38:34;17.90;;;9.37;;
28958;SDS011;16066;0.000;0.000;2022-11-27T09:43:41;12.80;;;8.97;;
28958;SDS011;16066;0.000;0.000;2022-11-27T09:46:14;16.23;;;9.50;;
28958;SDS011;16066;0.000;0.000;2022-11-27T09:48:48;13.67;;;9.77;;
28958;SDS011;16066;0.000;0.000;2022-11-27T09:51:24;13.73;;;9.10;;
28958;SDS011;16066;0.000;0.000;2022-11-27T09:56:39;14.80;;;9.30;;
28958;SDS011;16066;0.000;0.000;2022-11-27T09:59:10;16.30;;;9.03;;
28958;SDS011;16066;0.000;0.000;2022-11-27T10:01:41;19.37;;;8.30;;
28958;SDS011;16066;0.000;0.000;2022-11-27T10:04:08;18.57;;;7.10;;
28958;SDS011;16066;0.000;0.000;2022-11-27T10:09:41;12.97;;;7.67;;
28958;SDS011;16066;0.000;0.000;2022-11-27T10:17:13;9.80;;;6.80;;
28958;SDS011;16066;0.000;0.000;2022-11-27T10:19:51;7.70;;;6.17;;
28958;SDS011;16066;0.000;0.000;2022-11-27T10:25:09;13.73;;;8.13;;
28958;SDS011;16066;0.000;0.000;2022-11-27T10:30:17;15.80;;;6.63;;
28958;SDS011;16066;0.000;0.000;2022-11-27T10:32:44;13.63;;;8.00;;
28958;SDS011;16066;0.000;0.000;2022-11-27T10:35:14;15.70;;;7.83;;
28958;SDS011;16066;0.000;0.000;2022-11-27T10:40:54;17.70;;;7.80;;
28958;SDS011;16066;0.000;0.000;2022-11-27T10:43:39;17.23;;;7.70;;
28958;SDS011;16066;0.000;0.000;2022-11-27T10:46:11;15.40;;;8.23;;
28958;SDS011;16066;0.000;0.000;2022-11-27T10:48:44;19.23;;;9.63;;
28958;SDS011;16066;0.000;0.000;2022-11-27T10:51:23;16.17;;;9.40;;
28958;SDS011;16066;0.000;0.000;2022-11-27T10:53:54;14.03;;;9.27;;
28958;SDS011;16066;0.000;0.000;2022-11-27T10:59:10;14.80;;;8.87;;
28958;SDS011;16066;0.000;0.000;2022-11-27T11:01:44;15.33;;;9.93;;
28958;SDS011;16066;0.000;0.000;2022-11-27T11:04:12;12.87;;;9.13;;
28958;SDS011;16066;0.000;0.000;2022-11-27T11:06:44;12.43;;;8.47;;
28958;SDS011;16066;0.000;0.000;2022-11-27T11:09:13;13.80;;;8.73;;
28958;SDS011;16066;0.000;0.000;2022-11-27T11:11:39;12.83;;;9.23;;
28958;SDS011;16066;0.000;0.000;2022-11-27T11:14:14;11.93;;;8.60;;
28958;SDS011;16066;0.000;0.000;2022-11-27T11:16:50;16.17;;;8.77;;
28958;SDS011;16066;0.000;0.000;2022-11-27T11:19:24;16.47;;;9.10;;
28958;SDS011;16066;0.000;0.000;2022-11-27T11:21:57;13.90;;;8.33;;
28958;SDS011;16066;0.000;0.000;2022-11-27T11:24:26;12.50;;;8.90;;
28958;SDS011;16066;0.000;0.000;2022-11-27T11:27:10;15.13;;;8.70;;
28958;SDS011;16066;0.000;0.000;2022-11-27T11:32:11;18.20;;;9.67;;
28958;SDS011;16066;0.000;0.000;2022-11-27T11:35:01;18.70;;;9.70;;
28958;SDS011;16066;0.000;0.000;2022-11-27T11:37:32;13.13;;;8.70;;
28958;SDS011;16066;0.000;0.000;2022-11-27T11:42:49;13.00;;;8.10;;
28958;SDS011;16066;0.000;0.000;2022-11-27T11:45:16;16.93;;;9.97;;
28958;SDS011;16066;0.000;0.000;2022-11-27T11:48:18;14.67;;;8.63;;
28958;SDS011;16066;0.000;0.000;2022-11-27T11:50:48;16.07;;;10.60;;
28958;SDS011;16066;0.000;0.000;2022-11-27T12:09:55;18.93;;;10.23;;
28958;SDS011;16066;0.000;0.000;2022-11-27T12:15:29;16.27;;;10.37;;
28958;SDS011;16066;0.000;0.000;2022-11-27T12:18:05;21.00;;;12.30;;
28958;SDS011;16066;0.000;0.000;2022-11-27T12:20:53;18.83;;;10.90;;
28958;SDS011;16066;0.000;0.000;2022-11-27T12:24:20;20.80;;;11.27;;
28958;SDS011;16066;0.000;0.000;2022-11-27T12:27:04;19.93;;;11.40;;
28958;SDS011;16066;0.000;0.000;2022-11-27T12:32:21;18.80;;;10.63;;
28958;SDS011;16066;0.000;0.000;2022-11-27T12:43:59;23.07;;;11.70;;
28958;SDS011;16066;0.000;0.000;2022-11-27T12:46:35;15.23;;;11.40;;
28958;SDS011;16066;0.000;0.000;2022-11-27T12:49:16;15.47;;;10.80;;
28958;SDS011;16066;0.000;0.000;2022-11-27T12:52:01;19.70;;;11.07;;
28958;SDS011;16066;0.000;0.000;2022-11-27T12:57:43;16.83;;;10.07;;
28958;SDS011;16066;0.000;0.000;2022-11-27T13:00:17;15.53;;;9.97;;
28958;SDS011;16066;0.000;0.000;2022-11-27T13:05:34;14.70;;;10.20;;
28958;SDS011;16066;0.000;0.000;2022-11-27T13:08:17;17.03;;;10.53;;
28958;SDS011;16066;0.000;0.000;2022-11-27T13:10:52;17.90;;;10.93;;
28958;SDS011;16066;0.000;0.000;2022-11-27T13:14:04;16.30;;;10.13;;
28958;SDS011;16066;0.000;0.000;2022-11-27T13:16:34;18.33;;;11.23;;
28958;SDS011;16066;0.000;0.000;2022-11-27T13:19:08;28.07;;;12.00;;
28958;SDS011;16066;0.000;0.000;2022-11-27T13:21:46;16.93;;;9.83;;
28958;SDS011;16066;0.000;0.000;2022-11-27T13:24:13;18.80;;;10.30;;
28958;SDS011;16066;0.000;0.000;2022-11-27T13:26:41;14.40;;;9.30;;
28958;SDS011;16066;0.000;0.000;2022-11-27T13:29:47;13.03;;;9.53;;
28958;SDS011;16066;0.000;0.000;2022-11-27T13:32:38;18.70;;;10.20;;
28958;SDS011;16066;0.000;0.000;2022-11-27T13:35:28;12.30;;;8.60;;
28958;SDS011;16066;0.000;0.000;2022-11-27T13:38:20;12.47;;;8.57;;
28958;SDS011;16066;0.000;0.000;2022-11-27T13:40:51;14.17;;;9.97;;
28958;SDS011;16066;0.000;0.000;2022-11-27T13:43:21;13.00;;;9.20;;
28958;SDS011;16066;0.000;0.000;2022-11-27T13:45:58;16.37;;;9.60;;
28958;SDS011;16066;0.000;0.000;2022-11-27T13:48:34;13.80;;;9.53;;
28958;SDS011;16066;0.000;0.000;2022-11-27T13:51:02;13.47;;;8.57;;
28958;SDS011;16066;0.000;0.000;2022-11-27T13:53:31;12.60;;;8.90;;
28958;SDS011;16066;0.000;0.000;2022-11-27T13:56:02;12.20;;;8.27;;
28958;SDS011;16066;0.000;0.000;2022-11-27T13:58:29;12.13;;;8.43;;
28958;SDS011;16066;0.000;0.000;2022-11-27T14:01:18;12.57;;;7.80;;
28958;SDS011;16066;0.000;0.000;2022-11-27T14:03:45;10.37;;;7.80;;
28958;SDS011;16066;0.000;0.000;2022-11-27T14:08:55;12.87;;;8.47;;
28958;SDS011;16066;0.000;0.000;2022-11-27T14:11:41;17.23;;;8.77;;
28958;SDS011;16066;0.000;0.000;2022-11-27T14:19:57;9.50;;;7.30;;
28958;SDS011;16066;0.000;0.000;2022-11-27T14:22:59;11.43;;;8.13;;
28958;SDS011;16066;0.000;0.000;2022-11-27T14:27:53;12.80;;;8.87;;
28958;SDS011;16066;0.000;0.000;2022-11-27T14:33:03;12.57;;;7.73;;
28958;SDS011;16066;0.000;0.000;2022-11-27T14:35:29;11.07;;;7.67;;
28958;SDS011;16066;0.000;0.000;2022-11-27T14:38:06;12.47;;;9.23;;
28958;SDS011;16066;0.000;0.000;2022-11-27T14:40:35;15.40;;;9.73;;
28958;SDS011;16066;0.000;0.000;2022-11-27T14:43:18;10.97;;;8.80;;
28958;SDS011;16066;0.000;0.000;2022-11-27T14:45:50;10.80;;;7.50;;
28958;SDS011;16066;0.000;0.000;2022-11-27T14:48:26;11.30;;;8.20;;
28958;SDS011;16066;0.000;0.000;2022-11-27T14:50:56;12.30;;;7.80;;
28958;SDS011;16066;0.000;0.000;2022-11-27T14:53:23;11.57;;;8.33;;
28958;SDS011;16066;0.000;0.000;2022-11-27T14:55:52;10.60;;;8.10;;
28958;SDS011;16066;0.000;0.000;2022-11-27T14:58:24;12.10;;;8.67;;
28958;SDS011;16066;0.000;0.000;2022-11-27T15:03:22;11.60;;;8.40;;
28958;SDS011;16066;0.000;0.000;2022-11-27T15:05:53;16.03;;;9.30;;
28958;SDS011;16066;0.000;0.000;2022-11-27T15:08:28;10.43;;;7.80;;
28958;SDS011;16066;0.000;0.000;2022-11-27T15:10:57;9.90;;;7.60;;
28958;SDS011;16066;0.000;0.000;2022-11-27T15:13:26;9.77;;;7.13;;
28958;SDS011;16066;0.000;0.000;2022-11-27T15:16:04;10.77;;;7.83;;
28958;SDS011;16066;0.000;0.000;2022-11-27T15:18:49;9.67;;;8.10;;
28958;SDS011;16066;0.000;0.000;2022-11-27T15:21:19;11.43;;;8.10;;
28958;SDS011;16066;0.000;0.000;2022-11-27T15:23:49;11.10;;;7.90;;
28958;SDS011;16066;0.000;0.000;2022-11-27T15:26:28;11.43;;;8.50;;
28958;SDS011;16066;0.000;0.000;2022-11-27T15:28:58;10.97;;;7.97;;
28958;SDS011;16066;0.000;0.000;2022-11-27T15:31:29;10.13;;;7.70;;
28958;SDS011;16066;0.000;0.000;2022-11-27T15:34:03;11.63;;;7.83;;
28958;SDS011;16066;0.000;0.000;2022-11-27T15:36:44;11.37;;;7.73;;
28958;SDS011;16066;0.000;0.000;2022-11-27T15:39:19;9.50;;;7.10;;
28958;SDS011;16066;0.000;0.000;2022-11-27T15:41:52;12.03;;;7.70;;
28958;SDS011;16066;0.000;0.000;2022-11-27T15:44:28;12.17;;;8.37;;
28958;SDS011;16066;0.000;0.000;2022-11-27T15:46:55;10.83;;;7.90;;
28958;SDS011;16066;0.000;0.000;2022-11-27T15:49:23;11.10;;;7.50;;
28958;SDS011;16066;0.000;0.000;2022-11-27T15:51:49;10.37;;;7.33;;
28958;SDS011;16066;0.000;0.000;2022-11-27T15:54:14;11.40;;;8.30;;
28958;SDS011;16066;0.000;0.000;2022-11-27T15:56:40;10.90;;;8.13;;
28958;SDS011;16066;0.000;0.000;2022-11-27T15:59:08;15.13;;;8.50;;
28958;SDS011;16066;0.000;0.000;2022-11-27T16:01:34;12.53;;;8.37;;
28958;SDS011;16066;0.000;0.000;2022-11-27T16:04:00;11.13;;;7.63;;
28958;SDS011;16066;0.000;0.000;2022-11-27T16:06:26;10.13;;;7.23;;
28958;SDS011;16066;0.000;0.000;2022-11-27T16:08:55;11.13;;;7.47;;
28958;SDS011;16066;0.000;0.000;2022-11-27T16:11:22;10.50;;;7.90;;
28958;SDS011;16066;0.000;0.000;2022-11-27T16:13:49;9.60;;;7.17;;
28958;SDS011;16066;0.000;0.000;2022-11-27T16:16:15;10.80;;;7.80;;
28958;SDS011;16066;0.000;0.000;2022-11-27T16:18:41;11.30;;;7.77;;
28958;SDS011;16066;0.000;0.000;2022-11-27T16:21:08;11.73;;;8.20;;
28958;SDS011;16066;0.000;0.000;2022-11-27T16:23:35;9.20;;;7.07;;
28958;SDS011;16066;0.000;0.000;2022-11-27T16:26:02;10.43;;;7.97;;
28958;SDS011;16066;0.000;0.000;2022-11-27T16:28:28;12.60;;;9.17;;
28958;SDS011;16066;0.000;0.000;2022-11-27T16:30:55;10.63;;;7.63;;
28958;SDS011;16066;0.000;0.000;2022-11-27T16:33:24;11.10;;;7.90;;
28958;SDS011;16066;0.000;0.000;2022-11-27T16:35:50;11.43;;;8.30;;
28958;SDS011;16066;0.000;0.000;2022-11-27T16:38:15;13.03;;;8.40;;
28958;SDS011;16066;0.000;0.000;2022-11-27T16:40:41;10.37;;;7.57;;
28958;SDS011;16066;0.000;0.000;2022-11-27T16:43:07;11.73;;;7.93;;
28958;SDS011;16066;0.000;0.000;2022-11-27T16:45:34;10.50;;;7.43;;